createdAt,value
2023-05-10T00:01:41.592Z,13.00
2023-05-10T00:04:10.003Z,12.90
2023-05-10T00:06:38.563Z,12.90
2023-05-10T00:09:07.119Z,13.30
2023-05-10T00:11:36.777Z,12.80
2023-05-10T00:14:05.567Z,12.80
2023-05-10T00:16:33.827Z,12.80
2023-05-10T00:19:02.112Z,12.70
2023-05-10T00:21:30.309Z,12.70
2023-05-10T00:23:58.506Z,12.90
2023-05-10T00:26:26.908Z,12.70
2023-05-10T00:28:59.558Z,12.80
2023-05-10T00:31:27.864Z,13.20
2023-05-10T00:33:56.778Z,12.80
2023-05-10T00:36:25.608Z,12.80
2023-05-10T00:38:53.853Z,12.80
2023-05-10T00:41:22.023Z,12.80
2023-05-10T00:43:50.343Z,12.80
2023-05-10T00:46:20.342Z,13.00
2023-05-10T00:48:48.703Z,12.80
2023-05-10T00:51:17.054Z,12.80
2023-05-10T00:53:47.488Z,12.80
2023-05-10T00:56:15.693Z,12.80
2023-05-10T00:58:44.215Z,12.80
2023-05-10T01:01:13.863Z,12.80
2023-05-10T01:03:43.754Z,12.80
2023-05-10T01:06:12.672Z,12.80
2023-05-10T01:08:41.319Z,12.70
2023-05-10T01:11:09.584Z,12.70
2023-05-10T01:13:40.319Z,12.70
2023-05-10T01:16:09.648Z,12.80
2023-05-10T01:18:40.764Z,12.70
2023-05-10T01:21:24.664Z,12.70
2023-05-10T01:24:24.661Z,12.70
2023-05-10T01:27:20.836Z,12.70
2023-05-10T01:30:28.186Z,12.60
2023-05-10T01:33:02.666Z,12.60
2023-05-10T01:35:40.138Z,12.60
2023-05-10T01:38:14.829Z,12.60
2023-05-10T01:40:50.625Z,12.60
2023-05-10T01:43:25.175Z,12.60
2023-05-10T01:46:05.566Z,12.50
2023-05-10T01:48:35.607Z,12.90
2023-05-10T01:51:04.579Z,12.60
2023-05-10T01:53:34.312Z,12.60
2023-05-10T01:56:04.153Z,12.60
2023-05-10T01:58:34.730Z,12.60
2023-05-10T02:01:07.027Z,12.60
2023-05-10T02:03:39.321Z,12.60
2023-05-10T02:06:08.865Z,12.60
2023-05-10T02:08:38.542Z,12.60
2023-05-10T02:11:07.281Z,12.60
2023-05-10T02:13:37.987Z,12.60
2023-05-10T02:16:08.311Z,12.50
2023-05-10T02:18:38.598Z,12.50
2023-05-10T02:21:07.156Z,12.50
2023-05-10T02:23:36.440Z,12.70
2023-05-10T02:26:06.772Z,12.70
2023-05-10T02:28:36.944Z,12.50
2023-05-10T02:31:07.178Z,12.60
2023-05-10T02:33:37.803Z,12.50
2023-05-10T02:36:06.466Z,12.50
2023-05-10T02:38:35.971Z,12.50
2023-05-10T02:41:06.463Z,12.50
2023-05-10T02:43:36.551Z,12.50
2023-05-10T02:46:05.153Z,12.50
2023-05-10T02:48:33.895Z,12.50
2023-05-10T02:51:09.019Z,12.40
2023-05-10T02:53:41.003Z,12.50
2023-05-10T02:56:16.376Z,12.40
2023-05-10T02:58:44.702Z,12.50
2023-05-10T03:01:13.495Z,12.50
2023-05-10T03:03:41.624Z,12.40
2023-05-10T03:06:11.569Z,12.50
2023-05-10T03:08:40.047Z,12.50
2023-05-10T03:11:32.123Z,12.50
2023-05-10T03:14:15.149Z,12.60
2023-05-10T03:16:48.609Z,12.50
2023-05-10T03:19:24.488Z,12.50
2023-05-10T03:21:57.496Z,12.50
2023-05-10T03:24:29.997Z,12.60
2023-05-10T03:27:03.866Z,12.50
2023-05-10T03:29:33.240Z,12.60
2023-05-10T03:32:01.609Z,12.50
2023-05-10T03:34:33.196Z,12.60
2023-05-10T03:37:02.882Z,12.50
2023-05-10T03:39:33.307Z,12.50
2023-05-10T03:42:03.017Z,12.50
2023-05-10T03:44:32.285Z,12.50
2023-05-10T03:47:00.692Z,12.50
2023-05-10T03:49:29.054Z,12.60
2023-05-10T03:51:57.425Z,12.60
2023-05-10T03:54:27.179Z,12.60
2023-05-10T03:56:55.359Z,12.60
2023-05-10T03:59:24.095Z,12.60
2023-05-10T04:01:53.542Z,12.60
2023-05-10T04:04:22.382Z,12.60
2023-05-10T04:10:51.895Z,13.20
2023-05-10T04:13:50.491Z,12.90
2023-05-10T04:16:18.851Z,12.60
2023-05-10T04:18:49.722Z,12.90
2023-05-10T04:21:24.779Z,13.20
2023-05-10T04:23:53.060Z,12.60
2023-05-10T04:26:21.570Z,12.60
2023-05-10T04:28:51.091Z,12.60
2023-05-10T04:31:19.302Z,12.50
2023-05-10T04:33:47.617Z,12.50
2023-05-10T04:36:16.074Z,12.60
2023-05-10T04:38:45.282Z,12.50
2023-05-10T04:41:13.511Z,12.50
2023-05-10T04:43:41.739Z,12.60
2023-05-10T04:46:11.423Z,12.50
2023-05-10T04:48:39.648Z,12.50
2023-05-10T04:51:07.979Z,12.50
2023-05-10T04:53:36.150Z,12.50
2023-05-10T04:56:04.558Z,12.50
2023-05-10T04:58:33.026Z,12.50
2023-05-10T05:01:08.117Z,12.50
2023-05-10T05:03:38.295Z,12.50
2023-05-10T05:06:07.015Z,12.60
2023-05-10T05:08:35.236Z,12.60
2023-05-10T05:11:03.408Z,12.60
2023-05-10T05:13:31.915Z,12.60
2023-05-10T05:16:03.170Z,13.00
2023-05-10T05:18:31.726Z,12.80
2023-05-10T05:21:01.603Z,12.90
2023-05-10T05:23:29.897Z,12.70
2023-05-10T05:25:58.072Z,12.70
2023-05-10T05:28:26.253Z,12.80
2023-05-10T05:30:54.375Z,12.90
2023-05-10T05:33:23.219Z,12.90
2023-05-10T05:35:51.805Z,12.90
2023-05-10T05:38:21.412Z,13.00
2023-05-10T05:40:49.618Z,13.10
2023-05-10T05:43:18.092Z,13.00
2023-05-10T05:45:46.322Z,13.00
2023-05-10T05:48:14.505Z,13.10
2023-05-10T05:50:42.666Z,13.10
2023-05-10T05:53:11.303Z,13.20
2023-05-10T05:55:41.287Z,13.20
2023-05-10T05:58:09.452Z,13.30
2023-05-10T06:00:37.580Z,13.30
2023-05-10T06:03:05.885Z,13.30
2023-05-10T06:05:34.368Z,13.30
2023-05-10T06:08:02.557Z,13.30
2023-05-10T06:10:31.465Z,13.40
2023-05-10T06:13:01.189Z,13.50
2023-05-10T06:15:29.686Z,13.60
2023-05-10T06:17:57.938Z,13.70
2023-05-10T06:20:26.167Z,13.70
2023-05-10T06:22:54.402Z,13.70
2023-05-10T06:25:23.073Z,13.80
2023-05-10T06:27:53.629Z,13.90
2023-05-10T06:30:28.174Z,14.00
2023-05-10T06:32:57.257Z,14.30
2023-05-10T06:35:25.514Z,14.30
2023-05-10T06:37:53.730Z,14.40
2023-05-10T06:40:22.164Z,14.40
2023-05-10T06:42:50.801Z,14.70
2023-05-10T06:45:19.806Z,14.50
2023-05-10T06:47:49.691Z,14.60
2023-05-10T06:50:18.003Z,14.70
2023-05-10T06:52:46.756Z,14.70
2023-05-10T06:55:15.208Z,14.90
2023-05-10T06:57:43.900Z,14.90
2023-05-10T07:00:12.676Z,15.10
2023-05-10T07:02:41.026Z,15.20
2023-05-10T07:05:11.605Z,15.20
2023-05-10T07:07:39.818Z,15.20
2023-05-10T07:10:09.527Z,15.20
2023-05-10T07:12:37.839Z,15.20
2023-05-10T07:15:07.115Z,15.20
2023-05-10T07:17:35.680Z,15.20
2023-05-10T07:20:04.875Z,15.30
2023-05-10T07:22:34.578Z,15.20
2023-05-10T07:25:03.365Z,15.20
2023-05-10T07:27:32.453Z,15.30
2023-05-10T07:30:01.612Z,15.10
2023-05-10T07:32:30.348Z,15.10
2023-05-10T07:34:58.659Z,15.40
2023-05-10T07:37:26.990Z,15.00
2023-05-10T07:39:57.061Z,14.80
2023-05-10T07:42:25.173Z,14.80
2023-05-10T07:44:53.369Z,14.70
2023-05-10T07:47:21.533Z,14.70
2023-05-10T07:49:49.842Z,14.70
2023-05-10T07:52:18.065Z,14.80
2023-05-10T07:54:46.619Z,14.80
2023-05-10T07:57:18.550Z,14.80
2023-05-10T07:59:46.866Z,14.90
2023-05-10T08:02:15.166Z,14.90
2023-05-10T08:04:43.508Z,14.90
2023-05-10T08:07:11.880Z,14.90
2023-05-10T08:09:40.033Z,15.00
2023-05-10T08:12:32.758Z,15.00
2023-05-10T08:15:01.302Z,14.90
2023-05-10T08:17:29.525Z,14.90
2023-05-10T08:19:57.863Z,14.90
2023-05-10T08:22:26.207Z,15.10
2023-05-10T08:24:54.591Z,15.20
2023-05-10T08:27:22.834Z,15.40
2023-05-10T08:29:52.453Z,15.30
2023-05-10T08:32:21.249Z,15.50
2023-05-10T08:34:49.406Z,15.50
2023-05-10T08:37:17.732Z,15.60
2023-05-10T08:39:46.754Z,15.70
2023-05-10T08:42:18.232Z,15.80
2023-05-10T08:44:49.442Z,15.90
2023-05-10T08:47:20.676Z,15.90
2023-05-10T08:49:51.959Z,15.90
2023-05-10T08:52:21.065Z,15.90
2023-05-10T08:54:50.300Z,15.90
2023-05-10T08:57:18.472Z,15.90
2023-05-10T08:59:46.885Z,15.90
2023-05-10T09:02:18.583Z,16.00
2023-05-10T09:04:49.966Z,16.00
2023-05-10T09:07:19.006Z,15.90
2023-05-10T09:09:48.547Z,15.70
2023-05-10T09:12:17.420Z,15.80
2023-05-10T09:14:47.517Z,15.90
2023-05-10T09:17:16.398Z,16.00
2023-05-10T09:19:44.783Z,16.00
2023-05-10T09:22:14.678Z,16.00
2023-05-10T09:24:46.245Z,16.10
2023-05-10T09:27:14.552Z,16.30
2023-05-10T09:29:44.734Z,16.40
2023-05-10T09:32:13.865Z,16.50
2023-05-10T09:34:43.257Z,16.60
2023-05-10T09:37:11.558Z,16.80
2023-05-10T09:39:42.331Z,17.20
2023-05-10T09:42:11.363Z,17.50
2023-05-10T09:44:40.390Z,17.80
2023-05-10T09:47:08.623Z,18.00
2023-05-10T09:49:36.868Z,18.00
2023-05-10T09:52:06.592Z,18.20
2023-05-10T09:54:35.841Z,17.90
2023-05-10T09:57:06.000Z,17.80
2023-05-10T09:59:36.439Z,17.50
2023-05-10T10:02:05.165Z,17.70
2023-05-10T10:04:33.798Z,17.70
2023-05-10T10:07:04.775Z,17.90
2023-05-10T10:09:33.725Z,17.90
2023-05-10T10:12:02.925Z,17.90
2023-05-10T10:14:34.884Z,17.60
2023-05-10T10:19:36.208Z,17.50
2023-05-10T10:22:05.106Z,17.50
2023-05-10T10:24:33.504Z,17.40
2023-05-10T10:27:11.498Z,17.50
2023-05-10T10:29:49.641Z,17.70
2023-05-10T10:32:28.000Z,17.80
2023-05-10T10:34:57.992Z,17.90
2023-05-10T10:37:43.155Z,18.20
2023-05-10T10:40:33.695Z,18.30
2023-05-10T10:43:23.889Z,18.50
2023-05-10T10:46:18.277Z,18.60
2023-05-10T10:48:52.360Z,18.80
2023-05-10T10:51:20.604Z,19.00
2023-05-10T10:53:50.391Z,19.10
2023-05-10T10:56:25.209Z,19.20
2023-05-10T10:58:54.678Z,19.40
2023-05-10T11:01:24.591Z,19.40
2023-05-10T11:04:21.853Z,19.50
2023-05-10T11:06:50.073Z,19.40
2023-05-10T11:09:18.942Z,19.40
2023-05-10T11:11:56.198Z,19.50
2023-05-10T11:14:24.998Z,19.30
2023-05-10T11:16:54.675Z,19.20
2023-05-10T11:19:22.865Z,18.90
2023-05-10T11:21:52.338Z,18.70
2023-05-10T11:24:21.929Z,18.40
2023-05-10T11:26:52.801Z,18.20
2023-05-10T11:29:21.428Z,18.00
2023-05-10T11:31:50.481Z,17.90
2023-05-10T11:34:31.213Z,17.70
2023-05-10T11:37:00.166Z,17.50
2023-05-10T11:39:29.608Z,17.30
2023-05-10T11:41:58.201Z,17.30
2023-05-10T11:44:32.077Z,17.00
2023-05-10T11:47:01.708Z,16.80
2023-05-10T11:49:31.707Z,16.70
2023-05-10T11:52:07.098Z,16.60
2023-05-10T11:54:36.238Z,16.50
2023-05-10T11:57:04.721Z,16.50
2023-05-10T11:59:32.885Z,16.60
2023-05-10T12:02:01.209Z,16.70
2023-05-10T12:04:31.218Z,16.80
2023-05-10T12:06:59.817Z,16.90
2023-05-10T12:09:42.543Z,16.90
2023-05-10T12:12:12.589Z,16.90
2023-05-10T12:14:40.751Z,17.00
2023-05-10T12:17:13.856Z,17.10
2023-05-10T12:19:44.782Z,17.10
2023-05-10T12:22:13.159Z,17.10
2023-05-10T12:24:41.541Z,17.50
2023-05-10T12:27:10.849Z,17.60
2023-05-10T12:29:42.226Z,17.60
2023-05-10T12:32:11.263Z,17.60
2023-05-10T12:34:39.538Z,17.70
2023-05-10T12:37:09.405Z,17.90
2023-05-10T12:39:45.189Z,18.00
2023-05-10T12:42:13.711Z,18.10
2023-05-10T12:44:42.404Z,18.00
2023-05-10T12:47:10.647Z,17.80
2023-05-10T12:49:39.569Z,17.70
2023-05-10T12:52:09.129Z,17.70
2023-05-10T12:54:37.293Z,17.70
2023-05-10T12:57:05.820Z,17.70
2023-05-10T12:59:35.922Z,17.70
2023-05-10T13:02:05.638Z,17.70
2023-05-10T13:04:33.952Z,17.70
2023-05-10T13:07:02.122Z,17.60
2023-05-10T13:09:31.794Z,17.60
2023-05-10T13:12:00.517Z,17.60
2023-05-10T13:14:29.030Z,17.50
2023-05-10T13:16:57.262Z,17.70
2023-05-10T13:19:25.438Z,17.80
2023-05-10T13:21:53.941Z,18.00
2023-05-10T13:24:22.714Z,18.20
2023-05-10T13:27:09.889Z,18.40
2023-05-10T13:29:38.212Z,18.30
2023-05-10T13:32:07.211Z,18.30
2023-05-10T13:34:36.688Z,18.20
2023-05-10T13:37:04.968Z,18.00
2023-05-10T13:39:35.328Z,17.90
2023-05-10T13:42:04.986Z,17.90
2023-05-10T13:44:35.055Z,17.80
2023-05-10T13:47:03.398Z,17.70
2023-05-10T13:49:32.042Z,17.70
2023-05-10T13:52:00.208Z,17.70
2023-05-10T13:54:30.429Z,17.60
2023-05-10T13:56:58.602Z,17.70
2023-05-10T13:59:28.128Z,17.60
2023-05-10T14:01:56.432Z,17.60
2023-05-10T14:04:25.602Z,17.60
2023-05-10T14:06:54.532Z,17.70
2023-05-10T14:09:22.723Z,17.70
2023-05-10T14:11:50.919Z,17.70
2023-05-10T14:14:19.288Z,17.90
2023-05-10T14:16:48.978Z,18.10
2023-05-10T14:19:17.553Z,18.20
2023-05-10T14:21:45.728Z,18.30
2023-05-10T14:24:13.911Z,18.40
2023-05-10T14:26:42.703Z,18.20
2023-05-10T14:29:12.469Z,18.10
2023-05-10T14:31:41.028Z,18.10
2023-05-10T14:34:10.643Z,18.10
2023-05-10T14:36:38.809Z,18.20
2023-05-10T14:39:07.607Z,18.30
2023-05-10T14:41:36.595Z,18.50
2023-05-10T14:44:05.377Z,18.50
2023-05-10T14:46:35.488Z,18.50
2023-05-10T14:49:03.997Z,18.40
2023-05-10T14:51:33.853Z,18.50
2023-05-10T14:54:02.423Z,18.50
2023-05-10T14:56:30.653Z,18.50
2023-05-10T14:58:58.954Z,18.50
2023-05-10T15:01:27.424Z,18.60
2023-05-10T15:03:56.523Z,18.40
2023-05-10T15:06:26.611Z,18.40
2023-05-10T15:08:56.148Z,18.50
2023-05-10T15:11:24.404Z,18.70
2023-05-10T15:13:52.606Z,18.50
2023-05-10T15:16:21.288Z,18.60
2023-05-10T15:18:50.049Z,18.40
2023-05-10T15:21:18.299Z,18.20
2023-05-10T15:23:47.419Z,17.90
2023-05-10T15:26:17.265Z,17.80
2023-05-10T15:28:45.432Z,17.80
2023-05-10T15:31:13.667Z,17.60
2023-05-10T15:33:42.189Z,17.40
2023-05-10T15:36:10.503Z,17.30
2023-05-10T15:38:38.987Z,17.20
2023-05-10T15:41:07.642Z,17.10
2023-05-10T15:43:37.310Z,17.00
2023-05-10T15:46:06.951Z,16.80
2023-05-10T15:48:35.337Z,16.80
2023-05-10T15:51:03.553Z,16.70
2023-05-10T15:53:31.704Z,16.60
2023-05-10T15:55:59.996Z,16.60
2023-05-10T15:58:28.215Z,16.40
2023-05-10T16:00:57.917Z,16.40
2023-05-10T16:03:26.242Z,16.30
2023-05-10T16:05:54.797Z,16.10
2023-05-10T16:08:22.923Z,16.00
2023-05-10T16:10:52.467Z,16.00
2023-05-10T16:13:20.596Z,16.10
2023-05-10T16:15:48.762Z,15.80
2023-05-10T16:18:18.655Z,15.70
2023-05-10T16:20:46.913Z,15.70
2023-05-10T16:23:15.264Z,15.70
2023-05-10T16:25:43.519Z,15.60
2023-05-10T16:28:11.816Z,15.70
2023-05-10T16:30:39.991Z,15.80
2023-05-10T16:33:08.212Z,15.70
2023-05-10T16:35:37.709Z,15.80
2023-05-10T16:38:05.942Z,15.80
2023-05-10T16:40:34.133Z,15.80
2023-05-10T16:43:02.334Z,15.90
2023-05-10T16:45:32.481Z,16.00
2023-05-10T16:48:00.822Z,16.00
2023-05-10T16:50:29.031Z,16.00
2023-05-10T16:52:58.610Z,16.10
2023-05-10T16:55:26.965Z,16.00
2023-05-10T16:57:59.647Z,15.90
2023-05-10T17:00:28.264Z,15.90
2023-05-10T17:02:57.036Z,15.90
2023-05-10T17:05:25.347Z,15.90
2023-05-10T17:07:53.566Z,15.90
2023-05-10T17:10:23.259Z,15.90
2023-05-10T17:12:51.483Z,15.90
2023-05-10T17:15:20.675Z,15.90
2023-05-10T17:17:49.234Z,15.90
2023-05-10T17:20:17.573Z,16.10
2023-05-10T17:22:45.773Z,15.90
2023-05-10T17:25:13.970Z,15.90
2023-05-10T17:27:43.481Z,15.90
2023-05-10T17:30:12.769Z,15.80
2023-05-10T17:32:41.240Z,15.80
2023-05-10T17:35:09.959Z,15.70
2023-05-10T17:37:38.156Z,15.70
2023-05-10T17:40:07.845Z,15.70
2023-05-10T17:42:35.997Z,15.70
2023-05-10T17:45:05.957Z,15.60
2023-05-10T17:47:34.478Z,15.60
2023-05-10T17:50:02.742Z,15.50
2023-05-10T17:52:33.469Z,15.50
2023-05-10T17:55:02.445Z,15.50
2023-05-10T17:57:31.676Z,15.50
2023-05-10T17:59:59.917Z,15.40
2023-05-10T18:02:29.757Z,15.40
2023-05-10T18:05:01.224Z,15.40
2023-05-10T18:07:30.019Z,15.40
2023-05-10T18:09:58.234Z,15.30
2023-05-10T18:12:26.806Z,15.30
2023-05-10T18:14:54.940Z,15.20
2023-05-10T18:17:23.137Z,15.10
2023-05-10T18:19:53.519Z,15.00
2023-05-10T18:22:21.703Z,15.00
2023-05-10T18:24:49.793Z,15.20
2023-05-10T18:27:17.977Z,14.90
2023-05-10T18:29:46.285Z,14.80
2023-05-10T18:32:14.372Z,14.80
2023-05-10T18:34:42.544Z,14.70
2023-05-10T18:37:12.266Z,14.70
2023-05-10T18:39:40.783Z,14.70
2023-05-10T18:42:09.675Z,14.60
2023-05-10T18:44:37.854Z,14.60
2023-05-10T18:47:07.074Z,14.50
2023-05-10T18:49:35.223Z,14.50
2023-05-10T18:52:03.445Z,14.30
2023-05-10T18:54:32.932Z,14.30
2023-05-10T18:57:01.104Z,14.10
2023-05-10T18:59:29.200Z,14.10
2023-05-10T19:01:57.835Z,13.90
2023-05-10T19:04:27.215Z,13.80
2023-05-10T19:06:56.018Z,13.70
2023-05-10T19:09:24.468Z,13.80
2023-05-10T19:11:53.976Z,13.70
2023-05-10T19:14:22.427Z,13.80
2023-05-10T19:16:52.074Z,13.60
2023-05-10T19:19:21.248Z,13.50
2023-05-10T19:21:49.596Z,13.40
2023-05-10T19:24:21.737Z,13.40
2023-05-10T19:26:50.045Z,13.20
2023-05-10T19:29:19.689Z,13.20
2023-05-10T19:31:48.810Z,13.20
2023-05-10T19:34:17.328Z,13.30
2023-05-10T19:36:46.043Z,13.10
2023-05-10T19:39:14.299Z,12.90
2023-05-10T19:41:42.721Z,12.70
2023-05-10T19:44:11.255Z,12.70
2023-05-10T19:46:40.855Z,12.70
2023-05-10T19:49:09.208Z,12.60
2023-05-10T19:51:37.415Z,12.60
2023-05-10T19:54:05.595Z,12.70
2023-05-10T19:56:33.781Z,12.50
2023-05-10T19:59:03.267Z,12.70
2023-05-10T20:01:32.764Z,12.60
2023-05-10T20:04:02.554Z,12.60
2023-05-10T20:06:31.649Z,12.70
2023-05-10T20:08:59.805Z,12.50
2023-05-10T20:11:28.023Z,12.40
2023-05-10T20:13:56.427Z,12.70
2023-05-10T20:16:26.782Z,12.30
2023-05-10T20:18:55.470Z,12.30
2023-05-10T20:21:26.778Z,12.30
2023-05-10T20:23:55.117Z,12.50
2023-05-10T20:26:23.321Z,12.40
2023-05-10T20:28:52.370Z,12.60
2023-05-10T20:31:20.698Z,12.20
2023-05-10T20:33:49.059Z,12.30
2023-05-10T20:36:17.278Z,12.20
2023-05-10T20:38:46.840Z,12.20
2023-05-10T20:41:15.046Z,12.70
2023-05-10T20:43:43.433Z,12.30
2023-05-10T20:46:12.297Z,12.20
2023-05-10T20:48:40.443Z,12.20
2023-05-10T20:51:08.569Z,12.20
2023-05-10T20:53:36.715Z,12.20
2023-05-10T20:56:06.553Z,12.20
2023-05-10T20:58:35.953Z,12.20
2023-05-10T21:01:04.309Z,12.20
2023-05-10T21:03:32.938Z,12.20
2023-05-10T21:06:01.080Z,12.20
2023-05-10T21:08:29.222Z,12.20
2023-05-10T21:10:57.498Z,12.20
2023-05-10T21:13:27.379Z,12.10
2023-05-10T21:15:55.643Z,12.10
2023-05-10T21:18:23.830Z,12.20
2023-05-10T21:20:52.064Z,12.00
2023-05-10T21:23:20.180Z,12.00
2023-05-10T21:25:48.379Z,12.20
2023-05-10T21:28:16.566Z,12.00
2023-05-10T21:30:46.504Z,12.00
2023-05-10T21:33:14.712Z,12.00
2023-05-10T21:35:43.188Z,11.90
2023-05-10T21:38:12.056Z,11.90
2023-05-10T21:40:40.851Z,11.90
2023-05-10T21:43:09.605Z,11.90
2023-05-10T21:45:37.960Z,11.90
2023-05-10T21:48:07.722Z,12.00
2023-05-10T21:50:35.933Z,12.00
2023-05-10T21:53:04.127Z,12.20
2023-05-10T21:55:32.533Z,12.00
2023-05-10T21:58:00.630Z,12.00
2023-05-10T22:00:28.793Z,11.90
2023-05-10T22:02:56.987Z,12.00
2023-05-10T22:05:26.546Z,11.80
2023-05-10T22:07:55.047Z,11.70
2023-05-10T22:10:23.189Z,11.70
2023-05-10T22:12:51.692Z,11.70
2023-05-10T22:15:20.083Z,11.50
2023-05-10T22:17:48.276Z,11.40
2023-05-10T22:20:16.928Z,11.40
2023-05-10T22:22:46.636Z,11.40
2023-05-10T22:25:14.928Z,11.30
2023-05-10T22:27:43.046Z,11.20
2023-05-10T22:30:12.074Z,11.20
2023-05-10T22:32:40.248Z,11.10
2023-05-10T22:35:09.795Z,11.00
2023-05-10T22:37:37.914Z,10.90
2023-05-10T22:40:08.976Z,10.80
2023-05-10T22:42:37.107Z,10.70
2023-05-10T22:45:06.141Z,10.60
2023-05-10T22:47:34.481Z,10.60
2023-05-10T22:50:04.106Z,10.60
2023-05-10T22:52:33.643Z,10.60
2023-05-10T22:55:01.951Z,10.60
2023-05-10T22:57:32.417Z,11.20
2023-05-10T23:00:00.807Z,11.80
2023-05-10T23:02:29.025Z,11.00
2023-05-10T23:04:57.651Z,10.60
2023-05-10T23:07:26.413Z,10.80
2023-05-10T23:09:54.546Z,10.90
2023-05-10T23:12:22.684Z,10.70
2023-05-10T23:14:52.192Z,10.70
2023-05-10T23:17:20.506Z,10.60
2023-05-10T23:19:48.675Z,10.70
2023-05-10T23:22:17.016Z,10.70
2023-05-10T23:24:45.139Z,10.70
2023-05-10T23:27:13.604Z,10.70
2023-05-10T23:29:41.777Z,10.70
2023-05-10T23:32:11.485Z,10.70
2023-05-10T23:34:39.630Z,10.70
2023-05-10T23:37:07.743Z,10.70
2023-05-10T23:39:36.373Z,10.80
2023-05-10T23:42:04.726Z,10.70
2023-05-10T23:44:32.882Z,10.70
2023-05-10T23:47:01.853Z,10.70
2023-05-10T23:49:31.329Z,10.70
2023-05-10T23:51:59.493Z,10.60
2023-05-10T23:54:28.041Z,10.60
2023-05-10T23:56:56.182Z,10.60
2023-05-10T23:59:24.694Z,10.60
